createdAt,value
2023-03-25T00:00:21.382Z,21.42
2023-03-25T00:01:26.053Z,21.75
2023-03-25T00:02:30.344Z,19.67
2023-03-25T00:03:33.789Z,17.58
2023-03-25T00:04:39.208Z,13.60
2023-03-25T00:05:41.716Z,19.73
2023-03-25T00:06:45.004Z,14.77
2023-03-25T00:07:49.291Z,13.77
2023-03-25T00:08:53.931Z,12.95
2023-03-25T00:09:56.206Z,19.13
2023-03-25T00:11:00.553Z,12.98
2023-03-25T00:12:02.890Z,17.73
2023-03-25T00:13:08.293Z,14.73
2023-03-25T00:14:12.302Z,12.68
2023-03-25T00:15:17.957Z,16.25
2023-03-25T00:16:20.376Z,12.18
2023-03-25T00:17:23.835Z,15.20
2023-03-25T00:18:26.891Z,14.02
2023-03-25T00:19:30.639Z,20.50
2023-03-25T00:20:33.459Z,12.30
2023-03-25T00:21:37.518Z,15.82
2023-03-25T00:22:42.028Z,21.42
2023-03-25T00:23:45.369Z,14.32
2023-03-25T00:24:49.250Z,15.98
2023-03-25T00:25:53.040Z,13.95
2023-03-25T00:26:55.517Z,16.98
2023-03-25T00:27:58.791Z,19.20
2023-03-25T00:29:01.081Z,14.88
2023-03-25T00:30:04.729Z,17.48
2023-03-25T00:31:08.526Z,12.43
2023-03-25T00:32:11.976Z,13.43
2023-03-25T00:33:14.547Z,15.45
2023-03-25T00:34:17.834Z,10.18
2023-03-25T00:35:20.282Z,14.70
2023-03-25T00:36:23.597Z,12.65
2023-03-25T00:37:27.182Z,11.80
2023-03-25T00:38:33.544Z,18.08
2023-03-25T00:39:36.077Z,10.63
2023-03-25T00:40:40.928Z,6.63
2023-03-25T00:41:43.542Z,20.02
2023-03-25T00:42:50.426Z,12.27
2023-03-25T00:43:54.041Z,11.10
2023-03-25T00:44:57.296Z,14.40
2023-03-25T00:45:59.640Z,12.85
2023-03-25T00:47:03.036Z,17.90
2023-03-25T00:48:06.879Z,14.52
2023-03-25T00:49:12.256Z,15.32
2023-03-25T00:50:14.604Z,14.23
2023-03-25T00:51:19.434Z,14.90
2023-03-25T00:52:23.147Z,12.32
2023-03-25T00:53:26.545Z,13.52
2023-03-25T00:54:28.896Z,9.48
2023-03-25T00:55:32.194Z,9.18
2023-03-25T00:56:35.949Z,8.00
2023-03-25T00:57:39.561Z,11.48
2023-03-25T00:58:41.894Z,12.00
2023-03-25T00:59:45.224Z,9.85
2023-03-25T01:00:48.308Z,11.00
2023-03-25T01:01:53.248Z,9.80
2023-03-25T01:02:56.190Z,11.38
2023-03-25T01:04:00.580Z,12.23
2023-03-25T01:05:04.499Z,11.85
2023-03-25T01:06:11.650Z,15.05
2023-03-25T01:07:16.018Z,13.38
2023-03-25T01:08:25.194Z,11.20
2023-03-25T01:09:27.795Z,16.17
2023-03-25T01:10:31.273Z,15.30
2023-03-25T01:11:34.973Z,11.55
2023-03-25T01:12:39.685Z,10.95
2023-03-25T01:13:42.013Z,10.85
2023-03-25T01:14:46.749Z,14.18
2023-03-25T01:15:49.509Z,11.20
2023-03-25T01:16:52.959Z,11.85
2023-03-25T01:17:55.317Z,10.90
2023-03-25T01:18:58.668Z,13.15
2023-03-25T01:20:01.016Z,13.35
2023-03-25T01:21:04.418Z,16.15
2023-03-25T01:22:07.997Z,16.55
2023-03-25T01:23:11.412Z,13.27
2023-03-25T01:24:14.556Z,13.93
2023-03-25T01:25:17.855Z,11.82
2023-03-25T01:26:20.399Z,14.52
2023-03-25T01:27:24.549Z,15.18
2023-03-25T01:28:28.291Z,16.58
2023-03-25T01:29:32.109Z,13.20
2023-03-25T01:30:34.410Z,14.65
2023-03-25T01:31:37.703Z,13.52
2023-03-25T01:32:40.100Z,13.15
2023-03-25T01:33:43.771Z,13.13
2023-03-25T01:34:47.002Z,15.20
2023-03-25T01:35:50.456Z,15.13
2023-03-25T01:36:55.649Z,15.27
2023-03-25T01:37:59.098Z,14.43
2023-03-25T01:39:01.564Z,11.90
2023-03-25T01:40:07.288Z,11.88
2023-03-25T01:41:09.914Z,10.48
2023-03-25T01:42:13.681Z,12.77
2023-03-25T01:43:16.053Z,10.95
2023-03-25T01:44:38.162Z,11.60
2023-03-25T01:45:42.358Z,11.35
2023-03-25T01:46:45.855Z,14.73
2023-03-25T01:47:49.311Z,12.38
2023-03-25T01:48:52.621Z,11.38
2023-03-25T01:49:54.890Z,11.77
2023-03-25T01:51:00.345Z,10.68
2023-03-25T01:52:04.101Z,10.25
2023-03-25T01:53:08.390Z,11.95
2023-03-25T01:54:12.846Z,11.00
2023-03-25T01:55:20.390Z,10.45
2023-03-25T01:56:24.941Z,9.65
2023-03-25T01:57:31.091Z,9.93
2023-03-25T01:58:35.612Z,6.93
2023-03-25T01:59:39.070Z,9.73
2023-03-25T02:00:44.902Z,11.68
2023-03-25T02:01:47.436Z,9.85
2023-03-25T02:02:52.727Z,8.80
2023-03-25T02:04:02.979Z,8.65
2023-03-25T02:05:10.664Z,7.63
2023-03-25T02:06:17.598Z,8.43
2023-03-25T02:07:20.186Z,7.57
2023-03-25T02:08:24.151Z,7.30
2023-03-25T02:09:27.116Z,9.15
2023-03-25T02:10:30.435Z,6.20
2023-03-25T02:11:33.074Z,8.27
2023-03-25T02:12:36.400Z,7.45
2023-03-25T02:13:39.901Z,8.70
2023-03-25T02:14:43.291Z,11.80
2023-03-25T02:15:52.290Z,8.80
2023-03-25T02:17:02.107Z,12.70
2023-03-25T02:18:12.471Z,8.35
2023-03-25T02:19:32.971Z,8.23
2023-03-25T02:20:54.346Z,13.82
2023-03-25T02:22:14.740Z,8.98
2023-03-25T02:23:28.399Z,10.45
2023-03-25T02:24:46.718Z,9.70
2023-03-25T02:25:58.376Z,12.15
2023-03-25T02:27:17.342Z,10.70
2023-03-25T02:28:25.859Z,9.57
2023-03-25T02:29:38.046Z,11.10
2023-03-25T02:31:02.474Z,10.15
2023-03-25T02:32:17.088Z,8.85
2023-03-25T02:33:33.306Z,11.93
2023-03-25T02:34:46.539Z,10.40
2023-03-25T02:35:59.593Z,11.90
2023-03-25T02:37:10.876Z,7.78
2023-03-25T02:38:26.154Z,10.50
2023-03-25T02:39:32.216Z,12.25
2023-03-25T02:40:38.720Z,11.70
2023-03-25T02:41:42.881Z,16.13
2023-03-25T02:42:48.941Z,12.38
2023-03-25T02:43:52.906Z,8.43
2023-03-25T02:44:58.513Z,9.68
2023-03-25T02:46:03.744Z,15.05
2023-03-25T02:47:09.521Z,12.98
2023-03-25T02:48:13.712Z,28.88
2023-03-25T02:49:18.819Z,34.63
2023-03-25T02:50:23.009Z,35.67
2023-03-25T02:51:27.799Z,31.55
2023-03-25T02:52:32.278Z,36.22
2023-03-25T02:53:38.190Z,42.22
2023-03-25T02:54:41.636Z,25.95
2023-03-25T02:55:45.395Z,28.85
2023-03-25T02:56:49.407Z,13.65
2023-03-25T02:57:54.753Z,26.20
2023-03-25T02:58:57.815Z,12.98
2023-03-25T03:00:01.710Z,13.18
2023-03-25T03:01:04.100Z,12.73
2023-03-25T03:02:09.689Z,16.40
2023-03-25T03:03:12.253Z,14.85
2023-03-25T03:04:15.621Z,18.35
2023-03-25T03:05:23.227Z,18.30
2023-03-25T03:06:26.854Z,24.17
2023-03-25T03:07:31.256Z,25.55
2023-03-25T03:08:42.951Z,19.75
2023-03-25T03:09:47.050Z,16.90
2023-03-25T03:10:52.148Z,16.33
2023-03-25T03:11:59.647Z,17.50
2023-03-25T03:13:07.494Z,16.30
2023-03-25T03:14:15.601Z,19.70
2023-03-25T03:15:24.615Z,18.13
2023-03-25T03:16:33.413Z,20.15
2023-03-25T03:17:39.891Z,14.82
2023-03-25T03:18:46.249Z,13.57
2023-03-25T03:19:51.865Z,12.73
2023-03-25T03:20:57.887Z,14.45
2023-03-25T03:22:03.218Z,9.88
2023-03-25T03:23:07.166Z,7.03
2023-03-25T03:24:14.952Z,10.68
2023-03-25T03:25:20.854Z,8.00
2023-03-25T03:26:28.136Z,6.97
2023-03-25T03:27:34.128Z,8.02
2023-03-25T03:28:40.625Z,6.13
2023-03-25T03:29:46.063Z,9.05
2023-03-25T03:30:51.288Z,6.22
2023-03-25T03:32:05.848Z,7.80
2023-03-25T03:33:13.544Z,5.00
2023-03-25T03:34:20.308Z,5.15
2023-03-25T03:35:26.340Z,8.80
2023-03-25T03:36:30.248Z,9.50
2023-03-25T03:37:36.658Z,9.88
2023-03-25T03:38:40.936Z,5.93
2023-03-25T03:39:47.893Z,9.93
2023-03-25T03:40:52.314Z,12.43
2023-03-25T03:41:57.194Z,7.25
2023-03-25T03:43:00.712Z,9.10
2023-03-25T03:44:05.738Z,8.90
2023-03-25T03:45:09.773Z,9.95
2023-03-25T03:46:15.917Z,9.88
2023-03-25T03:47:20.188Z,10.40
2023-03-25T03:48:25.823Z,7.93
2023-03-25T03:49:29.695Z,7.50
2023-03-25T03:50:34.436Z,10.18
2023-03-25T03:51:38.166Z,5.78
2023-03-25T03:52:45.217Z,7.43
2023-03-25T03:53:50.173Z,8.02
2023-03-25T03:54:56.093Z,9.35
2023-03-25T03:56:01.764Z,8.55
2023-03-25T03:57:07.702Z,9.73
2023-03-25T03:58:15.317Z,12.57
2023-03-25T03:59:22.461Z,7.88
2023-03-25T04:00:27.079Z,8.07
2023-03-25T04:01:34.836Z,8.43
2023-03-25T04:02:39.657Z,7.10
2023-03-25T04:03:45.536Z,9.05
2023-03-25T04:04:47.972Z,7.10
2023-03-25T04:05:54.455Z,7.35
2023-03-25T04:06:58.502Z,5.82
2023-03-25T04:08:03.859Z,7.68
2023-03-25T04:09:10.362Z,6.13
2023-03-25T04:10:18.510Z,9.52
2023-03-25T04:11:22.735Z,5.65
2023-03-25T04:12:28.167Z,10.25
2023-03-25T04:13:33.804Z,7.15
2023-03-25T04:14:37.580Z,6.72
2023-03-25T04:15:40.023Z,8.50
2023-03-25T04:16:45.825Z,7.95
2023-03-25T04:17:48.351Z,8.15
2023-03-25T04:18:53.486Z,7.18
2023-03-25T04:19:55.802Z,8.07
2023-03-25T04:20:59.483Z,6.20
2023-03-25T04:22:01.785Z,7.65
2023-03-25T04:23:06.319Z,8.00
2023-03-25T04:24:08.692Z,7.15
2023-03-25T04:25:12.084Z,5.72
2023-03-25T04:26:15.792Z,6.63
2023-03-25T04:27:19.923Z,8.38
2023-03-25T04:28:23.975Z,8.07
2023-03-25T04:29:27.367Z,8.98
2023-03-25T04:30:31.122Z,7.50
2023-03-25T04:31:34.419Z,7.65
2023-03-25T04:32:36.851Z,6.03
2023-03-25T04:33:40.162Z,11.07
2023-03-25T04:34:42.693Z,5.68
2023-03-25T04:35:46.986Z,6.22
2023-03-25T04:36:50.962Z,9.75
2023-03-25T04:37:54.453Z,7.70
2023-03-25T04:38:57.821Z,6.30
2023-03-25T04:40:01.666Z,8.68
2023-03-25T04:41:06.945Z,7.38
2023-03-25T04:42:13.889Z,7.78
2023-03-25T04:43:16.771Z,8.15
2023-03-25T04:44:21.374Z,9.35
2023-03-25T04:45:25.339Z,7.13
2023-03-25T04:46:28.699Z,7.45
2023-03-25T04:47:31.056Z,5.68
2023-03-25T04:48:35.919Z,6.43
2023-03-25T04:49:38.194Z,6.80
2023-03-25T04:50:41.457Z,7.70
2023-03-25T04:51:44.962Z,6.93
2023-03-25T04:52:48.481Z,9.40
2023-03-25T04:53:50.808Z,5.95
2023-03-25T04:54:54.230Z,7.47
2023-03-25T04:55:56.901Z,5.95
2023-03-25T04:57:00.209Z,9.15
2023-03-25T04:58:03.923Z,6.88
2023-03-25T04:59:08.694Z,5.45
2023-03-25T05:00:11.710Z,7.95
2023-03-25T05:01:21.338Z,13.85
2023-03-25T05:02:24.153Z,10.45
2023-03-25T05:03:27.562Z,7.88
2023-03-25T05:04:29.958Z,8.30
2023-03-25T05:05:33.219Z,8.75
2023-03-25T05:06:36.204Z,6.80
2023-03-25T05:07:39.487Z,9.68
2023-03-25T05:08:41.801Z,7.68
2023-03-25T05:09:45.069Z,5.30
2023-03-25T05:10:47.347Z,6.78
2023-03-25T05:11:51.007Z,9.65
2023-03-25T05:12:58.600Z,6.90
2023-03-25T05:14:03.297Z,9.38
2023-03-25T05:15:06.292Z,10.75
2023-03-25T05:16:09.760Z,13.55
2023-03-25T05:17:12.062Z,9.82
2023-03-25T05:18:16.126Z,12.27
2023-03-25T05:19:19.326Z,15.05
2023-03-25T05:20:23.303Z,9.20
2023-03-25T05:21:26.414Z,13.00
2023-03-25T05:22:29.854Z,5.75
2023-03-25T05:23:33.623Z,7.68
2023-03-25T05:24:37.147Z,9.05
2023-03-25T05:25:41.298Z,8.02
2023-03-25T05:26:43.621Z,8.98
2023-03-25T05:27:46.928Z,9.70
2023-03-25T05:28:51.457Z,5.47
2023-03-25T05:29:58.276Z,6.25
2023-03-25T05:31:00.580Z,6.53
2023-03-25T05:32:03.869Z,9.65
2023-03-25T05:33:06.589Z,4.50
2023-03-25T05:34:10.150Z,6.78
2023-03-25T05:35:12.548Z,7.35
2023-03-25T05:36:16.680Z,6.85
2023-03-25T05:37:19.215Z,9.88
2023-03-25T05:38:22.548Z,11.27
2023-03-25T05:39:25.978Z,8.07
2023-03-25T05:40:29.805Z,7.15
2023-03-25T05:41:32.971Z,7.43
2023-03-25T05:42:37.795Z,9.02
2023-03-25T05:43:40.087Z,7.85
2023-03-25T05:44:51.638Z,9.00
2023-03-25T05:45:55.316Z,7.03
2023-03-25T05:47:01.668Z,8.55
2023-03-25T05:48:04.291Z,6.65
2023-03-25T05:49:07.634Z,8.60
2023-03-25T05:50:10.617Z,5.95
2023-03-25T05:51:15.648Z,9.82
2023-03-25T05:52:18.639Z,9.77
2023-03-25T05:53:22.680Z,7.32
2023-03-25T05:54:24.995Z,5.75
2023-03-25T05:55:28.710Z,5.85
2023-03-25T05:56:31.331Z,8.10
2023-03-25T05:57:34.666Z,6.38
2023-03-25T05:58:37.008Z,5.53
2023-03-25T05:59:40.865Z,8.70
2023-03-25T06:00:43.642Z,8.25
2023-03-25T06:01:50.075Z,9.02
2023-03-25T06:02:52.652Z,10.10
2023-03-25T06:03:57.341Z,8.02
2023-03-25T06:04:59.666Z,5.88
2023-03-25T06:06:05.279Z,10.02
2023-03-25T06:07:13.847Z,10.18
2023-03-25T06:08:17.242Z,9.27
2023-03-25T06:09:19.549Z,6.00
2023-03-25T06:10:22.823Z,7.43
2023-03-25T06:11:25.761Z,5.70
2023-03-25T06:12:29.815Z,5.55
2023-03-25T06:13:33.998Z,7.60
2023-03-25T06:14:37.265Z,6.38
2023-03-25T06:15:41.875Z,8.48
2023-03-25T06:16:46.860Z,4.75
2023-03-25T06:17:50.584Z,8.00
2023-03-25T06:18:56.562Z,7.65
2023-03-25T06:20:00.492Z,6.40
2023-03-25T06:21:03.841Z,6.38
2023-03-25T06:22:06.611Z,10.45
2023-03-25T06:23:10.031Z,5.60
2023-03-25T06:24:12.324Z,6.35
2023-03-25T06:25:19.101Z,6.95
2023-03-25T06:26:22.208Z,8.82
2023-03-25T06:27:27.072Z,4.78
2023-03-25T06:28:29.359Z,8.55
2023-03-25T06:29:33.025Z,5.40
2023-03-25T06:30:35.387Z,4.45
2023-03-25T06:31:38.729Z,4.93
2023-03-25T06:32:41.440Z,6.68
2023-03-25T06:33:46.316Z,6.20
2023-03-25T06:34:48.680Z,4.95
2023-03-25T06:35:53.789Z,6.65
2023-03-25T06:36:56.110Z,5.75
2023-03-25T06:37:59.380Z,10.02
2023-03-25T06:39:01.672Z,6.45
2023-03-25T06:40:06.128Z,7.20
2023-03-25T06:41:08.497Z,5.15
2023-03-25T06:42:11.767Z,5.90
2023-03-25T06:43:14.051Z,4.90
2023-03-25T06:44:24.646Z,3.50
2023-03-25T06:45:27.393Z,4.75
2023-03-25T06:46:30.784Z,4.70
2023-03-25T06:47:33.168Z,5.40
2023-03-25T06:48:36.456Z,5.43
2023-03-25T06:49:40.414Z,5.30
2023-03-25T06:50:45.440Z,6.35
2023-03-25T06:51:47.771Z,4.43
2023-03-25T06:52:51.126Z,4.47
2023-03-25T06:53:53.494Z,3.40
2023-03-25T06:54:56.827Z,4.80
2023-03-25T06:55:59.256Z,3.80
2023-03-25T06:57:02.616Z,4.55
2023-03-25T06:58:04.927Z,6.82
2023-03-25T06:59:08.202Z,5.53
2023-03-25T07:00:12.089Z,10.55
2023-03-25T07:01:15.619Z,6.82
2023-03-25T07:02:17.972Z,5.15
2023-03-25T07:03:21.227Z,5.78
2023-03-25T07:04:23.528Z,3.38
2023-03-25T07:05:28.269Z,5.00
2023-03-25T07:06:30.760Z,4.20
2023-03-25T07:07:34.115Z,7.45
2023-03-25T07:08:36.437Z,4.45
2023-03-25T07:09:39.730Z,3.40
2023-03-25T07:10:43.074Z,3.85
2023-03-25T07:11:45.625Z,3.42
2023-03-25T07:12:48.957Z,4.22
2023-03-25T07:13:53.862Z,4.20
2023-03-25T07:14:59.045Z,4.32
2023-03-25T07:16:01.396Z,4.18
2023-03-25T07:17:04.719Z,7.45
2023-03-25T07:18:07.095Z,4.03
2023-03-25T07:19:10.457Z,3.63
2023-03-25T07:20:15.096Z,3.20
2023-03-25T07:21:21.151Z,5.18
2023-03-25T07:22:23.446Z,4.95
2023-03-25T07:23:26.811Z,3.45
2023-03-25T07:24:29.242Z,6.90
2023-03-25T07:25:32.530Z,4.53
2023-03-25T07:26:34.908Z,3.33
2023-03-25T07:27:38.186Z,3.92
2023-03-25T07:28:40.863Z,3.28
2023-03-25T07:29:44.177Z,6.13
2023-03-25T07:30:46.500Z,5.30
2023-03-25T07:31:49.802Z,4.15
2023-03-25T07:32:52.198Z,3.80
2023-03-25T07:33:55.824Z,4.43
2023-03-25T07:34:58.119Z,3.80
2023-03-25T07:36:01.410Z,3.85
2023-03-25T07:37:05.237Z,4.63
2023-03-25T07:38:09.966Z,3.97
2023-03-25T07:39:12.278Z,4.30
2023-03-25T07:40:15.631Z,3.13
2023-03-25T07:41:17.927Z,3.65
2023-03-25T07:42:21.219Z,4.47
2023-03-25T07:43:23.593Z,6.57
2023-03-25T07:44:27.162Z,3.40
2023-03-25T07:45:29.558Z,6.30
2023-03-25T07:46:32.925Z,6.70
2023-03-25T07:47:35.342Z,4.63
2023-03-25T07:48:38.656Z,5.20
2023-03-25T07:49:41.011Z,6.10
2023-03-25T07:50:45.742Z,5.10
2023-03-25T07:51:48.077Z,4.15
2023-03-25T07:52:52.700Z,5.97
2023-03-25T07:53:55.328Z,3.33
2023-03-25T07:55:09.086Z,4.07
2023-03-25T07:56:11.395Z,5.32
2023-03-25T07:57:14.667Z,5.57
2023-03-25T07:58:17.444Z,3.95
2023-03-25T07:59:20.709Z,3.00
2023-03-25T08:00:23.109Z,6.22
2023-03-25T08:01:26.470Z,4.00
2023-03-25T08:02:28.854Z,3.95
2023-03-25T08:03:33.567Z,3.08
2023-03-25T08:04:36.234Z,5.97
2023-03-25T08:05:39.555Z,4.93
2023-03-25T08:06:41.879Z,2.92
2023-03-25T08:07:45.363Z,6.30
2023-03-25T08:08:49.006Z,3.20
2023-03-25T08:09:52.331Z,5.45
2023-03-25T08:10:55.637Z,3.85
2023-03-25T08:11:58.014Z,4.53
2023-03-25T08:13:01.312Z,3.90
2023-03-25T08:14:03.643Z,3.70
2023-03-25T08:15:07.284Z,4.60
2023-03-25T08:16:11.576Z,5.32
2023-03-25T08:17:14.883Z,5.13
2023-03-25T08:18:18.187Z,5.47
2023-03-25T08:19:20.462Z,4.53
2023-03-25T08:20:23.780Z,3.03
2023-03-25T08:21:27.338Z,2.60
2023-03-25T08:22:30.618Z,2.60
2023-03-25T08:23:36.898Z,4.70
2023-03-25T08:24:42.002Z,8.10
2023-03-25T08:25:44.301Z,3.45
2023-03-25T08:26:48.122Z,6.07
2023-03-25T08:27:50.458Z,4.30
2023-03-25T08:28:54.867Z,3.38
2023-03-25T08:29:59.978Z,3.17
2023-03-25T08:31:06.089Z,4.05
2023-03-25T08:32:09.412Z,3.03
2023-03-25T08:33:11.826Z,3.08
2023-03-25T08:34:15.496Z,3.45
2023-03-25T08:35:19.549Z,4.57
2023-03-25T08:36:23.262Z,2.88
2023-03-25T08:37:25.947Z,4.80
2023-03-25T08:38:33.852Z,2.95
2023-03-25T08:39:40.072Z,4.80
2023-03-25T08:40:45.558Z,5.00
2023-03-25T08:41:47.870Z,5.00
2023-03-25T08:42:51.323Z,2.92
2023-03-25T08:43:53.637Z,3.70
2023-03-25T08:44:56.950Z,3.30
2023-03-25T08:45:59.393Z,3.58
2023-03-25T08:47:02.726Z,4.38
2023-03-25T08:48:05.352Z,7.65
2023-03-25T08:49:08.623Z,4.25
2023-03-25T08:50:11.470Z,3.15
2023-03-25T08:51:14.783Z,4.72
2023-03-25T08:52:17.280Z,4.22
2023-03-25T08:53:20.588Z,2.63
2023-03-25T08:54:23.854Z,5.32
2023-03-25T08:55:26.508Z,5.13
2023-03-25T08:56:31.252Z,4.57
2023-03-25T08:57:33.608Z,4.32
2023-03-25T08:58:36.950Z,5.03
2023-03-25T08:59:39.300Z,3.92
2023-03-25T09:00:42.574Z,3.75
2023-03-25T09:01:44.982Z,4.43
2023-03-25T09:02:48.380Z,2.78
2023-03-25T09:03:50.979Z,4.43
2023-03-25T09:04:54.463Z,2.92
2023-03-25T09:05:58.116Z,3.30
2023-03-25T09:07:11.928Z,2.58
2023-03-25T09:08:16.113Z,2.42
2023-03-25T09:09:19.663Z,2.65
2023-03-25T09:10:22.028Z,6.70
2023-03-25T09:11:35.984Z,3.25
2023-03-25T09:12:40.678Z,4.18
2023-03-25T09:13:44.119Z,2.85
2023-03-25T09:14:47.478Z,3.70
2023-03-25T09:15:49.963Z,3.70
2023-03-25T09:16:53.444Z,2.83
2023-03-25T09:17:55.742Z,3.17
2023-03-25T09:18:59.078Z,2.88
2023-03-25T09:20:01.416Z,3.30
2023-03-25T09:21:05.430Z,5.32
2023-03-25T09:22:08.349Z,4.43
2023-03-25T09:23:12.130Z,3.83
2023-03-25T09:24:15.431Z,4.63
2023-03-25T09:25:18.705Z,5.25
2023-03-25T09:26:21.034Z,2.63
2023-03-25T09:27:24.294Z,2.45
2023-03-25T09:28:27.946Z,4.47
2023-03-25T09:29:31.280Z,4.10
2023-03-25T09:30:33.660Z,2.63
2023-03-25T09:31:37.092Z,2.50
2023-03-25T09:32:39.583Z,3.03
2023-03-25T09:33:42.995Z,4.55
2023-03-25T09:34:45.393Z,3.05
2023-03-25T09:35:48.821Z,6.25
2023-03-25T09:36:51.497Z,6.38
2023-03-25T09:37:54.781Z,5.80
2023-03-25T09:38:57.050Z,2.92
2023-03-25T09:40:00.357Z,3.88
2023-03-25T09:41:04.711Z,2.80
2023-03-25T09:42:20.862Z,3.08
2023-03-25T09:43:29.261Z,4.70
2023-03-25T09:44:35.311Z,4.00
2023-03-25T09:45:39.714Z,5.28
2023-03-25T09:46:42.158Z,5.47
2023-03-25T09:47:50.462Z,4.75
2023-03-25T09:48:54.272Z,3.25
2023-03-25T09:50:00.777Z,3.33
2023-03-25T09:51:06.400Z,3.80
2023-03-25T09:52:12.970Z,4.43
2023-03-25T09:53:19.876Z,4.30
2023-03-25T09:54:24.004Z,4.85
2023-03-25T09:55:28.508Z,5.53
2023-03-25T09:56:33.289Z,4.65
2023-03-25T09:57:41.541Z,3.92
2023-03-25T09:58:46.151Z,3.50
2023-03-25T09:59:50.994Z,4.25
2023-03-25T10:00:57.918Z,3.60
2023-03-25T10:02:03.739Z,4.88
2023-03-25T10:03:12.968Z,3.40
2023-03-25T10:04:31.489Z,3.72
2023-03-25T10:05:41.081Z,4.55
2023-03-25T10:06:48.591Z,4.28
2023-03-25T10:07:56.174Z,5.65
2023-03-25T10:09:07.290Z,2.95
2023-03-25T10:10:14.827Z,4.53
2023-03-25T10:11:19.662Z,4.97
2023-03-25T10:12:28.665Z,2.90
2023-03-25T10:13:37.776Z,3.55
2023-03-25T10:14:44.832Z,3.25
2023-03-25T10:15:54.639Z,2.95
2023-03-25T10:17:05.133Z,3.97
2023-03-25T10:18:18.386Z,3.13
2023-03-25T10:19:26.807Z,4.07
2023-03-25T10:20:38.672Z,3.05
2023-03-25T10:21:44.199Z,2.80
2023-03-25T10:22:54.610Z,3.40
2023-03-25T10:24:02.322Z,2.90
2023-03-25T10:25:06.011Z,3.00
2023-03-25T10:26:12.221Z,3.37
2023-03-25T10:27:19.179Z,2.93
2023-03-25T10:28:27.356Z,4.60
2023-03-25T10:29:33.872Z,2.43
2023-03-25T10:30:39.494Z,3.67
2023-03-25T10:31:50.465Z,2.63
2023-03-25T10:32:55.657Z,3.47
2023-03-25T10:33:59.534Z,3.33
2023-03-25T10:35:05.411Z,3.10
2023-03-25T10:36:09.497Z,4.00
2023-03-25T10:37:14.443Z,2.83
2023-03-25T10:38:18.852Z,4.05
2023-03-25T10:39:23.128Z,4.13
2023-03-25T10:40:27.228Z,3.22
2023-03-25T10:41:32.967Z,3.85
2023-03-25T10:42:39.586Z,3.20
2023-03-25T10:43:43.976Z,5.80
2023-03-25T10:44:46.507Z,4.32
2023-03-25T10:45:50.565Z,3.50
2023-03-25T10:46:57.616Z,4.68
2023-03-25T10:48:04.660Z,2.70
2023-03-25T10:49:08.999Z,3.67
2023-03-25T10:50:15.708Z,5.25
2023-03-25T10:51:21.620Z,2.17
2023-03-25T10:52:24.053Z,2.72
2023-03-25T10:53:28.440Z,2.20
2023-03-25T10:54:33.531Z,3.22
2023-03-25T10:55:36.479Z,2.28
2023-03-25T10:56:41.901Z,3.28
2023-03-25T10:57:44.587Z,2.28
2023-03-25T10:58:49.312Z,2.45
2023-03-25T10:59:57.153Z,4.63
2023-03-25T11:01:01.503Z,3.42
2023-03-25T11:02:12.775Z,2.30
2023-03-25T11:03:17.885Z,2.33
2023-03-25T11:04:22.074Z,3.88
2023-03-25T11:05:27.885Z,3.08
2023-03-25T11:06:31.782Z,2.47
2023-03-25T11:07:36.860Z,2.72
2023-03-25T11:08:49.023Z,2.80
2023-03-25T11:09:52.380Z,2.97
2023-03-25T11:11:01.254Z,2.17
2023-03-25T11:12:06.845Z,2.83
2023-03-25T11:13:16.303Z,2.25
2023-03-25T11:14:22.940Z,1.80
2023-03-25T11:15:27.260Z,4.10
2023-03-25T11:16:32.046Z,1.90
2023-03-25T11:17:36.970Z,2.08
2023-03-25T11:18:40.784Z,2.38
2023-03-25T11:19:46.264Z,2.58
2023-03-25T11:20:49.706Z,2.08
2023-03-25T11:21:55.536Z,2.03
2023-03-25T11:23:02.726Z,1.88
2023-03-25T11:24:07.744Z,1.90
2023-03-25T11:25:13.897Z,1.63
2023-03-25T11:26:21.118Z,3.72
2023-03-25T11:27:26.092Z,2.30
2023-03-25T11:28:35.413Z,2.03
2023-03-25T11:29:38.009Z,3.15
2023-03-25T11:31:01.353Z,2.78
2023-03-25T11:32:07.910Z,1.70
2023-03-25T11:33:14.995Z,1.60
2023-03-25T11:34:19.094Z,1.42
2023-03-25T11:35:24.732Z,1.60
2023-03-25T11:36:28.836Z,1.40
2023-03-25T11:37:32.630Z,3.22
2023-03-25T11:38:38.513Z,1.65
2023-03-25T11:39:43.486Z,1.08
2023-03-25T11:40:51.770Z,1.00
2023-03-25T11:41:55.347Z,1.13
2023-03-25T11:42:59.293Z,1.27
2023-03-25T11:44:02.118Z,1.00
2023-03-25T11:45:05.782Z,1.80
2023-03-25T11:46:09.069Z,1.37
2023-03-25T11:47:13.292Z,1.30
2023-03-25T11:48:18.828Z,1.10
2023-03-25T11:49:23.232Z,1.30
2023-03-25T11:50:26.574Z,3.30
2023-03-25T11:51:31.283Z,1.10
2023-03-25T11:52:41.264Z,1.70
2023-03-25T11:53:46.090Z,3.90
2023-03-25T11:54:49.772Z,1.33
2023-03-25T11:55:54.113Z,2.00
2023-03-25T11:56:58.074Z,1.87
2023-03-25T11:58:02.091Z,1.97
2023-03-25T11:59:09.628Z,1.23
2023-03-25T12:00:21.363Z,2.20
2023-03-25T12:01:27.944Z,1.50
2023-03-25T12:02:31.436Z,1.70
2023-03-25T12:03:36.830Z,4.30
2023-03-25T12:04:39.688Z,1.40
2023-03-25T12:05:43.979Z,1.57
2023-03-25T12:06:57.913Z,1.87
2023-03-25T12:08:15.206Z,1.50
2023-03-25T12:09:17.581Z,5.50
2023-03-25T12:10:21.718Z,1.60
2023-03-25T12:11:25.605Z,1.80
2023-03-25T12:12:34.995Z,4.17
2023-03-25T12:13:41.961Z,3.70
2023-03-25T12:14:49.767Z,1.37
2023-03-25T12:15:56.782Z,1.77
2023-03-25T12:17:02.658Z,1.47
2023-03-25T12:18:18.523Z,1.60
2023-03-25T12:19:29.166Z,2.50
2023-03-25T12:20:34.831Z,2.13
2023-03-25T12:21:45.309Z,1.77
2023-03-25T12:22:51.919Z,1.57
2023-03-25T12:23:59.651Z,1.30
2023-03-25T12:25:13.310Z,3.03
2023-03-25T12:26:18.144Z,1.97
2023-03-25T12:27:26.597Z,1.90
2023-03-25T12:28:35.094Z,2.10
2023-03-25T12:29:42.001Z,2.20
2023-03-25T12:30:50.671Z,1.03
2023-03-25T12:32:00.132Z,1.20
2023-03-25T12:33:06.615Z,1.47
2023-03-25T12:34:13.185Z,2.53
2023-03-25T12:35:28.619Z,1.70
2023-03-25T12:36:38.865Z,1.10
2023-03-25T12:37:47.653Z,1.90
2023-03-25T12:38:54.472Z,3.67
2023-03-25T12:40:12.612Z,1.43
2023-03-25T12:41:22.981Z,4.37
2023-03-25T12:42:33.557Z,1.77
2023-03-25T12:43:41.131Z,3.43
2023-03-25T12:44:52.491Z,1.37
2023-03-25T12:46:14.418Z,4.17
2023-03-25T12:47:22.332Z,1.87
2023-03-25T12:48:43.305Z,2.63
2023-03-25T12:49:55.818Z,3.57
2023-03-25T12:51:03.715Z,1.70
2023-03-25T12:52:10.192Z,2.27
2023-03-25T12:53:21.461Z,2.40
2023-03-25T12:54:31.098Z,1.70
2023-03-25T12:55:44.452Z,1.70
2023-03-25T12:56:52.239Z,2.40
2023-03-25T12:57:59.700Z,1.77
2023-03-25T12:59:15.501Z,2.37
2023-03-25T13:00:35.470Z,1.53
2023-03-25T13:01:43.138Z,1.87
2023-03-25T13:03:02.730Z,2.37
2023-03-25T13:04:15.965Z,2.63
2023-03-25T13:05:20.391Z,1.33
2023-03-25T13:06:30.761Z,2.27
2023-03-25T13:07:36.708Z,1.90
2023-03-25T13:08:44.052Z,4.27
2023-03-25T13:09:52.264Z,1.57
2023-03-25T13:10:58.819Z,3.53
2023-03-25T13:12:03.693Z,1.67
2023-03-25T13:13:11.092Z,4.20
2023-03-25T13:14:16.947Z,2.30
2023-03-25T13:15:26.957Z,1.83
2023-03-25T13:16:31.993Z,2.83
2023-03-25T13:17:38.032Z,1.93
2023-03-25T13:18:44.215Z,1.70
2023-03-25T13:19:49.026Z,1.40
2023-03-25T13:20:59.034Z,2.20
2023-03-25T13:22:07.197Z,3.53
2023-03-25T13:23:12.279Z,1.43
2023-03-25T13:24:17.748Z,3.13
2023-03-25T13:25:23.246Z,2.57
2023-03-25T13:26:29.440Z,1.50
2023-03-25T13:27:34.627Z,2.07
2023-03-25T13:28:38.574Z,2.17
2023-03-25T13:29:44.254Z,2.13
2023-03-25T13:30:47.983Z,1.53
2023-03-25T13:31:51.470Z,1.73
2023-03-25T13:32:57.725Z,1.40
2023-03-25T13:34:07.081Z,1.87
2023-03-25T13:35:15.465Z,1.63
2023-03-25T13:36:22.539Z,1.30
2023-03-25T13:37:29.319Z,1.43
2023-03-25T13:38:33.910Z,3.17
2023-03-25T13:39:45.171Z,1.10
2023-03-25T13:40:50.802Z,1.85
2023-03-25T13:41:54.727Z,3.20
2023-03-25T13:43:00.980Z,2.90
2023-03-25T13:44:05.293Z,1.10
2023-03-25T13:45:09.330Z,0.90
2023-03-25T13:46:14.356Z,2.17
2023-03-25T13:47:19.038Z,0.95
2023-03-25T13:48:25.228Z,1.85
2023-03-25T13:49:29.848Z,0.70
2023-03-25T13:50:33.573Z,1.60
2023-03-25T13:51:36.754Z,1.35
2023-03-25T13:52:43.683Z,1.15
2023-03-25T13:53:47.397Z,1.30
2023-03-25T13:54:53.252Z,1.67
2023-03-25T13:56:01.964Z,0.90
2023-03-25T13:57:12.789Z,1.20
2023-03-25T13:58:35.667Z,2.03
2023-03-25T13:59:56.684Z,1.90
2023-03-25T14:01:09.044Z,1.30
2023-03-25T14:02:23.170Z,2.40
2023-03-25T14:03:38.387Z,1.58
2023-03-25T14:04:48.237Z,1.30
2023-03-25T14:06:09.827Z,1.65
2023-03-25T14:07:27.054Z,3.20
2023-03-25T14:08:56.754Z,2.13
2023-03-25T14:10:09.952Z,6.68
2023-03-25T14:11:16.687Z,3.00
2023-03-25T14:12:20.817Z,1.80
2023-03-25T14:13:26.701Z,1.38
2023-03-25T14:14:30.011Z,1.67
2023-03-25T14:15:34.696Z,1.45
2023-03-25T14:16:40.055Z,1.35
2023-03-25T14:17:45.539Z,1.40
2023-03-25T14:18:50.739Z,1.60
2023-03-25T14:19:55.370Z,2.83
2023-03-25T14:20:59.327Z,1.17
2023-03-25T14:22:07.429Z,1.50
2023-03-25T14:23:14.193Z,2.05